Genco Loire — V7GN8 — position and weather

sailwx.info

Track history (hours):
 
Tides and Currents Weather Stations Pressure Air Temp Water Temp Dewpoint Dewpoint Depression Visibility Wind Speed Wind Dir Waves Ship Positions

Genco Loire

Last reported at 2016-Jun-23 18:32 UTC. Time now 2016-Jun-30 19:34 UTC.
Position N 33°08' W 008°43'.

Length 190 m; draft 12.5 m.

MMSI: 538002760.

Date/timePositionNaut miles runAvg speedWind from/ knotsBaromVisibWave heightAir tempDewpointWater temp
2016-Jun-23 18:32N 33°08' W 008°43'0 0.0
2016-Jun-21 22:31N 33°08' W 008°43'0 0.0
2016-Jun-21 20:31N 33°08' W 008°43'0 0.0
2016-Jun-21 12:25N 33°08' W 008°43'0 0.0
2016-Jun-21 11:13N 33°08' W 008°43'31 2.4
2016-Jun-20 22:19N 33°34' W 008°21'911.5
2016-Jun-20 21:34N 33°40' W 008°14'1211.5
2016-Jun-20 20:33N 33°49' W 008°05'1111.5
2016-Jun-20 19:33N 33°58' W 007°56'1211.5
2016-Jun-20 18:32N 34°07' W 007°47'1111.5
2016-Jun-20 17:33N 34°16' W 007°38'1111.5
2016-Jun-20 16:33N 34°24' W 007°29'1111.4
2016-Jun-20 15:33N 34°33' W 007°20'1111.2
2016-Jun-20 14:34N 34°41' W 007°11'1111.0
2016-Jun-20 13:33N 34°50' W 007°02'1210.7
2016-Jun-20 12:25N 34°59' W 006°52'2111.0
2016-Jun-20 10:27N 35°16' W 006°36'1011.2
2016-Jun-20 09:32N 35°23' W 006°27'1111.5
2016-Jun-20 08:34N 35°32' W 006°18'44 9.9
2016-Jun-20 04:11N 35°57' W 005°35'6 9.1
2016-Jun-20 03:33N 35°60' W 005°29'7 7.2
2016-Jun-20 02:33N 36°06' W 005°24'0 0.1
2016-Jun-20 01:33N 36°06' W 005°24'0 0.2
2016-Jun-20 00:33N 36°06' W 005°24'0 0.1
2016-Jun-19 23:33N 36°06' W 005°24'0 0.0
2016-Jun-19 22:33N 36°06' W 005°24'2 1.5
2016-Jun-19 21:33N 36°05' W 005°23'7 6.7
2016-Jun-19 20:27N 36°04' W 005°14'13310.3
2016-Jun-19 07:31N 36°23' W 002°30'22510.7
2016-Jun-18 10:29N 37°02' E 002°06'1110.9
2016-Jun-18 09:27N 37°04' E 002°20'2110.9
2016-Jun-18 07:33N 37°07' E 002°45'1010.4
2016-Jun-18 06:33N 37°09' E 002°58'5410.5
2016-Jun-18 01:28N 37°19' E 004°05'43510.3
2016-Jun-16 07:24N 36°51' E 013°09'1011.2
2016-Jun-16 06:32N 36°48' E 013°21'1010.4
2016-Jun-16 05:33N 36°45' E 013°33'1110.5
2016-Jun-16 04:33N 36°42' E 013°45'1010.5
2016-Jun-16 03:33N 36°38' E 013°58'1110.6
2016-Jun-16 02:33N 36°35' E 014°10'1110.9
2016-Jun-16 01:34N 36°32' E 014°23'1111.0
2016-Jun-16 00:33N 36°28' E 014°36'1110.9
2016-Jun-15 23:33N 36°26' E 014°50'1110.7
2016-Jun-15 22:33N 36°23' E 015°02'1311.1
2016-Jun-15 21:25N 36°18' E 015°16'1011.4
2016-Jun-15 20:33N 36°15' E 015°28'1111.2
2016-Jun-15 19:33N 36°11' E 015°41'1211.2
2016-Jun-15 18:28N 36°07' E 015°55'1211.4
2016-Jun-15 17:25N 36°04' E 016°10'9211.2
2016-Jun-15 09:11N 35°35' E 017°57'711.1
2016-Jun-15 08:33N 35°33' E 018°05'  
Track history (hours):
 
Tides and Currents Weather Stations Pressure Air Temp Water Temp Dewpoint Dewpoint Depression Visibility Wind Speed Wind Dir Waves Ship Positions

Genco Loire

Last reported at 2016-Jun-23 18:32 UTC. Time now 2016-Jun-30 19:34 UTC.
Position N 33°08' W 008°43'.

Length 190 m; draft 12.5 m.

MMSI: 538002760.

Date/timePositionNaut miles runAvg speedWind from/ knotsBaromVisibWave heightAir tempDewpointWater temp
2016-Jun-23 18:32N 33°08' W 008°43'0 0.0
2016-Jun-21 22:31N 33°08' W 008°43'0 0.0
2016-Jun-21 20:31N 33°08' W 008°43'0 0.0
2016-Jun-21 12:25N 33°08' W 008°43'0 0.0
2016-Jun-21 11:13N 33°08' W 008°43'31 2.4
2016-Jun-20 22:19N 33°34' W 008°21'911.5
2016-Jun-20 21:34N 33°40' W 008°14'1211.5
2016-Jun-20 20:33N 33°49' W 008°05'1111.5
2016-Jun-20 19:33N 33°58' W 007°56'1211.5
2016-Jun-20 18:32N 34°07' W 007°47'1111.5
2016-Jun-20 17:33N 34°16' W 007°38'1111.5
2016-Jun-20 16:33N 34°24' W 007°29'1111.4
2016-Jun-20 15:33N 34°33' W 007°20'1111.2
2016-Jun-20 14:34N 34°41' W 007°11'1111.0
2016-Jun-20 13:33N 34°50' W 007°02'1210.7
2016-Jun-20 12:25N 34°59' W 006°52'2111.0
2016-Jun-20 10:27N 35°16' W 006°36'1011.2
2016-Jun-20 09:32N 35°23' W 006°27'1111.5
2016-Jun-20 08:34N 35°32' W 006°18'44 9.9
2016-Jun-20 04:11N 35°57' W 005°35'6 9.1
2016-Jun-20 03:33N 35°60' W 005°29'7 7.2
2016-Jun-20 02:33N 36°06' W 005°24'0 0.1
2016-Jun-20 01:33N 36°06' W 005°24'0 0.2
2016-Jun-20 00:33N 36°06' W 005°24'0 0.1
2016-Jun-19 23:33N 36°06' W 005°24'0 0.0
2016-Jun-19 22:33N 36°06' W 005°24'2 1.5
2016-Jun-19 21:33N 36°05' W 005°23'7 6.7
2016-Jun-19 20:27N 36°04' W 005°14'13310.3
2016-Jun-19 07:31N 36°23' W 002°30'22510.7
2016-Jun-18 10:29N 37°02' E 002°06'1110.9
2016-Jun-18 09:27N 37°04' E 002°20'2110.9
2016-Jun-18 07:33N 37°07' E 002°45'1010.4
2016-Jun-18 06:33N 37°09' E 002°58'5410.5
2016-Jun-18 01:28N 37°19' E 004°05'43510.3
2016-Jun-16 07:24N 36°51' E 013°09'1011.2
2016-Jun-16 06:32N 36°48' E 013°21'1010.4
2016-Jun-16 05:33N 36°45' E 013°33'1110.5
2016-Jun-16 04:33N 36°42' E 013°45'1010.5
2016-Jun-16 03:33N 36°38' E 013°58'1110.6
2016-Jun-16 02:33N 36°35' E 014°10'1110.9
2016-Jun-16 01:34N 36°32' E 014°23'1111.0
2016-Jun-16 00:33N 36°28' E 014°36'1110.9
2016-Jun-15 23:33N 36°26' E 014°50'1110.7
2016-Jun-15 22:33N 36°23' E 015°02'1311.1
2016-Jun-15 21:25N 36°18' E 015°16'1011.4
2016-Jun-15 20:33N 36°15' E 015°28'1111.2
2016-Jun-15 19:33N 36°11' E 015°41'1211.2
2016-Jun-15 18:28N 36°07' E 015°55'1211.4
2016-Jun-15 17:25N 36°04' E 016°10'9211.2
2016-Jun-15 09:11N 35°35' E 017°57'711.1
2016-Jun-15 08:33N 35°33' E 018°05'  

Dump ship's entire track history